sensor_id;sensor_type;location;lat;lon;timestamp;pressure;altitude;pressure_sealevel;temperature;humidity
5905;BME280;2978;42.012;24.880;2023-02-19T00:01:42;98929.59;;;12.87;48.69
5905;BME280;2978;42.012;24.880;2023-02-19T00:04:12;98924.66;;;12.84;48.78
5905;BME280;2978;42.012;24.880;2023-02-19T00:06:39;98923.53;;;12.85;48.79
5905;BME280;2978;42.012;24.880;2023-02-19T00:09:04;98925.16;;;12.91;48.70
5905;BME280;2978;42.012;24.880;2023-02-19T00:11:32;98917.72;;;12.87;48.67
5905;BME280;2978;42.012;24.880;2023-02-19T00:13:59;98911.66;;;12.90;48.62
5905;BME280;2978;42.012;24.880;2023-02-19T00:16:27;98926.50;;;12.99;48.38
5905;BME280;2978;42.012;24.880;2023-02-19T00:18:54;98920.44;;;13.02;48.00
5905;BME280;2978;42.012;24.880;2023-02-19T00:21:20;98917.94;;;13.00;48.11
5905;BME280;2978;42.012;24.880;2023-02-19T00:23:51;98915.22;;;12.95;48.16
5905;BME280;2978;42.012;24.880;2023-02-19T00:26:17;98900.63;;;12.90;49.05
5905;BME280;2978;42.012;24.880;2023-02-19T00:28:43;98902.66;;;12.74;49.11
5905;BME280;2978;42.012;24.880;2023-02-19T00:31:22;98907.81;;;12.86;49.19
5905;BME280;2978;42.012;24.880;2023-02-19T00:33:50;98903.72;;;12.78;49.20
5905;BME280;2978;42.012;24.880;2023-02-19T00:36:16;98898.50;;;12.77;49.14
5905;BME280;2978;42.012;24.880;2023-02-19T00:38:43;98894.38;;;12.74;49.23
5905;BME280;2978;42.012;24.880;2023-02-19T00:41:08;98891.66;;;12.69;49.42
5905;BME280;2978;42.012;24.880;2023-02-19T00:46:33;98875.66;;;12.66;49.71
5905;BME280;2978;42.012;24.880;2023-02-19T00:48:59;98880.63;;;12.64;49.39
5905;BME280;2978;42.012;24.880;2023-02-19T00:51:28;98880.09;;;12.67;49.60
5905;BME280;2978;42.012;24.880;2023-02-19T00:53:53;98866.28;;;12.67;49.43
5905;BME280;2978;42.012;24.880;2023-02-19T00:56:19;98872.06;;;12.71;49.32
5905;BME280;2978;42.012;24.880;2023-02-19T00:58:45;98866.25;;;12.72;49.22
5905;BME280;2978;42.012;24.880;2023-02-19T01:01:11;98866.50;;;12.76;49.36
5905;BME280;2978;42.012;24.880;2023-02-19T01:03:37;98859.63;;;12.73;49.23
5905;BME280;2978;42.012;24.880;2023-02-19T01:06:04;98856.59;;;12.70;49.43
5905;BME280;2978;42.012;24.880;2023-02-19T01:08:30;98848.13;;;12.61;49.38
5905;BME280;2978;42.012;24.880;2023-02-19T01:10:57;98853.13;;;12.54;49.67
5905;BME280;2978;42.012;24.880;2023-02-19T01:13:22;98866.34;;;12.62;49.57
5905;BME280;2978;42.012;24.880;2023-02-19T01:15:48;98870.72;;;12.63;49.25
5905;BME280;2978;42.012;24.880;2023-02-19T01:18:13;98861.88;;;12.66;49.24
5905;BME280;2978;42.012;24.880;2023-02-19T01:20:41;98864.09;;;12.64;49.78
5905;BME280;2978;42.012;24.880;2023-02-19T01:23:06;98858.06;;;12.57;49.76
5905;BME280;2978;42.012;24.880;2023-02-19T01:25:32;98859.19;;;12.56;50.07
5905;BME280;2978;42.012;24.880;2023-02-19T01:27:57;98864.47;;;12.48;49.94
5905;BME280;2978;42.012;24.880;2023-02-19T01:30:22;98859.81;;;12.43;49.84
5905;BME280;2978;42.012;24.880;2023-02-19T01:32:48;98863.06;;;12.50;49.96
5905;BME280;2978;42.012;24.880;2023-02-19T01:35:13;98859.00;;;12.42;49.87
5905;BME280;2978;42.012;24.880;2023-02-19T01:37:39;98857.03;;;12.43;49.79
5905;BME280;2978;42.012;24.880;2023-02-19T01:40:05;98850.97;;;12.46;50.18
5905;BME280;2978;42.012;24.880;2023-02-19T01:42:30;98870.56;;;12.44;50.19
5905;BME280;2978;42.012;24.880;2023-02-19T01:45:33;98877.72;;;12.45;49.74
5905;BME280;2978;42.012;24.880;2023-02-19T01:48:19;98862.06;;;12.36;50.25
5905;BME280;2978;42.012;24.880;2023-02-19T01:50:51;98874.78;;;12.32;50.13
5905;BME280;2978;42.012;24.880;2023-02-19T01:53:21;98871.13;;;12.41;50.31
5905;BME280;2978;42.012;24.880;2023-02-19T01:55:52;98866.66;;;12.51;49.84
5905;BME280;2978;42.012;24.880;2023-02-19T01:58:18;98865.84;;;12.45;49.69
5905;BME280;2978;42.012;24.880;2023-02-19T02:00:44;98859.03;;;12.37;50.14
5905;BME280;2978;42.012;24.880;2023-02-19T02:03:10;98863.75;;;12.32;50.85
5905;BME280;2978;42.012;24.880;2023-02-19T02:08:15;98842.00;;;12.20;50.98
5905;BME280;2978;42.012;24.880;2023-02-19T02:11:01;98853.09;;;12.10;51.10
5905;BME280;2978;42.012;24.880;2023-02-19T02:13:26;98843.47;;;12.08;51.33
5905;BME280;2978;42.012;24.880;2023-02-19T02:18:34;98844.69;;;11.82;52.34
5905;BME280;2978;42.012;24.880;2023-02-19T02:32:24;98859.69;;;12.14;50.76
5905;BME280;2978;42.012;24.880;2023-02-19T02:34:55;98857.16;;;12.23;50.30
5905;BME280;2978;42.012;24.880;2023-02-19T02:37:24;98845.31;;;12.22;50.14
5905;BME280;2978;42.012;24.880;2023-02-19T02:39:52;98854.47;;;12.13;50.65
5905;BME280;2978;42.012;24.880;2023-02-19T02:42:18;98864.38;;;12.14;50.21
5905;BME280;2978;42.012;24.880;2023-02-19T02:44:57;98869.28;;;12.27;50.08
5905;BME280;2978;42.012;24.880;2023-02-19T02:47:52;98876.75;;;12.21;50.08
5905;BME280;2978;42.012;24.880;2023-02-19T02:50:29;98872.63;;;12.14;50.41
5905;BME280;2978;42.012;24.880;2023-02-19T02:53:02;98874.84;;;12.12;50.81
5905;BME280;2978;42.012;24.880;2023-02-19T02:55:50;98879.34;;;11.93;51.14
5905;BME280;2978;42.012;24.880;2023-02-19T02:58:18;98867.78;;;11.86;51.46
5905;BME280;2978;42.012;24.880;2023-02-19T03:00:49;98869.47;;;11.82;51.96
5905;BME280;2978;42.012;24.880;2023-02-19T03:03:37;98848.28;;;11.72;52.20
5905;BME280;2978;42.012;24.880;2023-02-19T03:06:06;98868.69;;;11.71;52.27
5905;BME280;2978;42.012;24.880;2023-02-19T03:08:58;98874.44;;;11.65;52.68
5905;BME280;2978;42.012;24.880;2023-02-19T03:11:27;98869.47;;;11.62;52.48
5905;BME280;2978;42.012;24.880;2023-02-19T03:14:23;98860.69;;;11.65;52.05
5905;BME280;2978;42.012;24.880;2023-02-19T03:17:14;98870.03;;;11.64;52.29
5905;BME280;2978;42.012;24.880;2023-02-19T03:20:02;98876.69;;;11.68;52.25
5905;BME280;2978;42.012;24.880;2023-02-19T03:22:32;98858.75;;;11.70;51.92
5905;BME280;2978;42.012;24.880;2023-02-19T03:25:06;98882.97;;;11.68;52.43
5905;BME280;2978;42.012;24.880;2023-02-19T03:27:53;98891.78;;;11.60;52.63
5905;BME280;2978;42.012;24.880;2023-02-19T03:30:24;98892.63;;;11.61;52.60
5905;BME280;2978;42.012;24.880;2023-02-19T03:35:26;98909.69;;;11.78;51.50
5905;BME280;2978;42.012;24.880;2023-02-19T03:38:11;98901.97;;;11.80;51.19
5905;BME280;2978;42.012;24.880;2023-02-19T03:40:49;98904.16;;;11.88;51.16
5905;BME280;2978;42.012;24.880;2023-02-19T03:46:35;98897.03;;;11.57;52.35
5905;BME280;2978;42.012;24.880;2023-02-19T03:49:23;98894.31;;;11.47;52.85
5905;BME280;2978;42.012;24.880;2023-02-19T03:52:00;98900.09;;;11.40;53.49
5905;BME280;2978;42.012;24.880;2023-02-19T03:56:59;98903.09;;;11.33;53.57
5905;BME280;2978;42.012;24.880;2023-02-19T03:59:52;98895.97;;;11.32;53.19
5905;BME280;2978;42.012;24.880;2023-02-19T04:02:27;98908.63;;;11.28;53.36
5905;BME280;2978;42.012;24.880;2023-02-19T04:05:00;98892.09;;;11.28;53.42
5905;BME280;2978;42.012;24.880;2023-02-19T04:07:30;98902.31;;;11.38;53.08
5905;BME280;2978;42.012;24.880;2023-02-19T04:09:57;98898.13;;;11.46;52.38
5905;BME280;2978;42.012;24.880;2023-02-19T04:12:23;98903.66;;;11.46;52.85
5905;BME280;2978;42.012;24.880;2023-02-19T04:14:56;98908.03;;;11.57;52.42
5905;BME280;2978;42.012;24.880;2023-02-19T04:17:32;98910.78;;;11.62;51.96
5905;BME280;2978;42.012;24.880;2023-02-19T04:20:01;98893.75;;;11.45;52.60
5905;BME280;2978;42.012;24.880;2023-02-19T04:22:28;98911.38;;;11.44;52.58
5905;BME280;2978;42.012;24.880;2023-02-19T04:24:54;98905.88;;;11.49;52.71
5905;BME280;2978;42.012;24.880;2023-02-19T04:27:20;98904.75;;;11.50;52.88
5905;BME280;2978;42.012;24.880;2023-02-19T04:29:46;98925.16;;;11.44;53.04
5905;BME280;2978;42.012;24.880;2023-02-19T04:32:12;98931.19;;;11.30;53.02
5905;BME280;2978;42.012;24.880;2023-02-19T04:34:38;98918.53;;;11.24;53.34
5905;BME280;2978;42.012;24.880;2023-02-19T04:37:04;98926.25;;;11.17;53.45
5905;BME280;2978;42.012;24.880;2023-02-19T04:39:30;98951.56;;;11.29;53.37
5905;BME280;2978;42.012;24.880;2023-02-19T04:41:55;98943.59;;;11.38;52.87
5905;BME280;2978;42.012;24.880;2023-02-19T04:44:21;98940.56;;;11.40;52.70
5905;BME280;2978;42.012;24.880;2023-02-19T04:46:46;98942.19;;;11.41;52.71
5905;BME280;2978;42.012;24.880;2023-02-19T04:49:12;98944.66;;;11.37;52.87
5905;BME280;2978;42.012;24.880;2023-02-19T04:51:38;98948.81;;;11.34;53.13
5905;BME280;2978;42.012;24.880;2023-02-19T04:54:03;98951.56;;;11.29;53.33
5905;BME280;2978;42.012;24.880;2023-02-19T04:56:29;98951.56;;;11.29;53.08
5905;BME280;2978;42.012;24.880;2023-02-19T04:58:54;98956.50;;;11.38;53.17
5905;BME280;2978;42.012;24.880;2023-02-19T05:01:20;98951.84;;;11.38;53.24
5905;BME280;2978;42.012;24.880;2023-02-19T05:03:45;98959.81;;;11.45;52.42
5905;BME280;2978;42.012;24.880;2023-02-19T05:06:12;98951.56;;;11.50;52.13
5905;BME280;2978;42.012;24.880;2023-02-19T05:08:37;98942.50;;;11.64;51.56
5905;BME280;2978;42.012;24.880;2023-02-19T05:11:05;98940.28;;;11.71;50.81
5905;BME280;2978;42.012;24.880;2023-02-19T05:13:31;98953.22;;;11.71;50.66
5905;BME280;2978;42.012;24.880;2023-02-19T05:16:02;98953.47;;;11.84;50.62
5905;BME280;2978;42.012;24.880;2023-02-19T05:18:29;98948.72;;;12.05;49.45
5905;BME280;2978;42.012;24.880;2023-02-19T05:20:56;98954.50;;;12.18;48.82
5905;BME280;2978;42.012;24.880;2023-02-19T05:23:23;98960.22;;;12.32;48.30
5905;BME280;2978;42.012;24.880;2023-02-19T05:25:48;98965.69;;;12.42;48.29
5905;BME280;2978;42.012;24.880;2023-02-19T05:28:14;98963.78;;;12.42;48.41
5905;BME280;2978;42.012;24.880;2023-02-19T05:31:05;98958.22;;;12.48;48.02
5905;BME280;2978;42.012;24.880;2023-02-19T05:33:31;98965.09;;;12.50;48.01
5905;BME280;2978;42.012;24.880;2023-02-19T05:35:56;98975.56;;;12.58;47.92
5905;BME280;2978;42.012;24.880;2023-02-19T05:38:22;98975.50;;;12.68;47.18
5905;BME280;2978;42.012;24.880;2023-02-19T05:40:49;98973.81;;;12.77;47.09
5905;BME280;2978;42.012;24.880;2023-02-19T05:43:15;98981.19;;;12.92;46.89
5905;BME280;2978;42.012;24.880;2023-02-19T05:45:40;98990.81;;;12.94;46.10
5905;BME280;2978;42.012;24.880;2023-02-19T05:48:06;98998.47;;;13.12;46.21
5905;BME280;2978;42.012;24.880;2023-02-19T05:50:34;98994.84;;;13.17;45.94
5905;BME280;2978;42.012;24.880;2023-02-19T05:53:00;99001.63;;;13.34;45.19
5905;BME280;2978;42.012;24.880;2023-02-19T05:55:27;99006.53;;;13.42;45.00
5905;BME280;2978;42.012;24.880;2023-02-19T05:57:52;99013.00;;;13.62;44.26
5905;BME280;2978;42.012;24.880;2023-02-19T06:00:18;99026.97;;;13.80;43.80
5905;BME280;2978;42.012;24.880;2023-02-19T06:02:46;99005.59;;;13.91;43.54
5905;BME280;2978;42.012;24.880;2023-02-19T06:05:12;99025.00;;;13.86;44.12
5905;BME280;2978;42.012;24.880;2023-02-19T06:07:37;99034.47;;;13.75;44.35
5905;BME280;2978;42.012;24.880;2023-02-19T06:10:08;99032.84;;;13.69;44.36
5905;BME280;2978;42.012;24.880;2023-02-19T06:12:34;99040.63;;;13.62;45.16
5905;BME280;2978;42.012;24.880;2023-02-19T06:15:00;99050.13;;;13.50;45.53
5905;BME280;2978;42.012;24.880;2023-02-19T06:17:25;99039.34;;;13.54;45.02
5905;BME280;2978;42.012;24.880;2023-02-19T06:19:51;99046.72;;;13.64;44.87
5905;BME280;2978;42.012;24.880;2023-02-19T06:22:16;99051.69;;;13.67;44.86
5905;BME280;2978;42.012;24.880;2023-02-19T06:24:41;99044.13;;;13.77;44.17
5905;BME280;2978;42.012;24.880;2023-02-19T06:27:08;99046.47;;;13.94;43.84
5905;BME280;2978;42.012;24.880;2023-02-19T06:29:34;99041.22;;;14.26;43.26
5905;BME280;2978;42.012;24.880;2023-02-19T06:32:03;99046.59;;;14.41;43.03
5905;BME280;2978;42.012;24.880;2023-02-19T06:34:29;99039.44;;;14.40;42.33
5905;BME280;2978;42.012;24.880;2023-02-19T06:36:54;99047.72;;;14.63;41.93
5905;BME280;2978;42.012;24.880;2023-02-19T06:39:19;99050.91;;;14.99;41.06
5905;BME280;2978;42.012;24.880;2023-02-19T06:41:45;99045.00;;;15.06;41.08
5905;BME280;2978;42.012;24.880;2023-02-19T06:44:10;99056.75;;;15.16;40.75
5905;BME280;2978;42.012;24.880;2023-02-19T06:46:36;99055.19;;;15.29;40.31
5905;BME280;2978;42.012;24.880;2023-02-19T06:49:03;99057.41;;;15.50;39.77
5905;BME280;2978;42.012;24.880;2023-02-19T06:51:29;99057.53;;;15.77;39.31
5905;BME280;2978;42.012;24.880;2023-02-19T06:53:57;99071.75;;;15.71;40.14
5905;BME280;2978;42.012;24.880;2023-02-19T06:56:27;99061.00;;;15.51;40.62
5905;BME280;2978;42.012;24.880;2023-02-19T06:58:54;99061.06;;;15.46;40.76
5905;BME280;2978;42.012;24.880;2023-02-19T07:01:21;99073.94;;;15.55;40.43
5905;BME280;2978;42.012;24.880;2023-02-19T07:03:47;99057.31;;;15.55;40.47
5905;BME280;2978;42.012;24.880;2023-02-19T07:06:12;99063.09;;;15.40;40.82
5905;BME280;2978;42.012;24.880;2023-02-19T07:08:38;99062.91;;;15.32;40.88
5905;BME280;2978;42.012;24.880;2023-02-19T07:11:03;99059.69;;;15.25;41.39
5905;BME280;2978;42.012;24.880;2023-02-19T07:13:29;99054.28;;;15.15;41.44
5905;BME280;2978;42.012;24.880;2023-02-19T07:15:59;99062.97;;;15.27;41.00
5905;BME280;2978;42.012;24.880;2023-02-19T07:18:25;99056.16;;;15.38;40.87
5905;BME280;2978;42.012;24.880;2023-02-19T07:20:51;99050.78;;;15.46;40.51
5905;BME280;2978;42.012;24.880;2023-02-19T07:23:16;99060.09;;;15.55;40.37
5905;BME280;2978;42.012;24.880;2023-02-19T07:25:41;99062.50;;;15.62;40.42
5905;BME280;2978;42.012;24.880;2023-02-19T07:28:07;99053.34;;;15.61;40.02
5905;BME280;2978;42.012;24.880;2023-02-19T07:30:32;99045.78;;;15.67;40.20
5905;BME280;2978;42.012;24.880;2023-02-19T07:32:58;99060.88;;;15.93;39.43
5905;BME280;2978;42.012;24.880;2023-02-19T07:35:23;99059.69;;;16.13;38.98
5905;BME280;2978;42.012;24.880;2023-02-19T07:37:48;99057.72;;;16.32;38.72
5905;BME280;2978;42.012;24.880;2023-02-19T07:40:14;99053.28;;;16.63;37.27
5905;BME280;2978;42.012;24.880;2023-02-19T07:42:40;99048.97;;;16.98;36.43
5905;BME280;2978;42.012;24.880;2023-02-19T07:45:05;99056.53;;;17.19;36.51
5905;BME280;2978;42.012;24.880;2023-02-19T07:47:31;99046.13;;;17.25;37.06
5905;BME280;2978;42.012;24.880;2023-02-19T07:49:56;99054.91;;;17.18;37.33
5905;BME280;2978;42.012;24.880;2023-02-19T07:52:22;99057.13;;;17.30;36.44
5905;BME280;2978;42.012;24.880;2023-02-19T07:54:47;99058.03;;;17.52;35.82
5905;BME280;2978;42.012;24.880;2023-02-19T07:57:13;99050.16;;;17.68;35.98
5905;BME280;2978;42.012;24.880;2023-02-19T07:59:39;99051.97;;;17.86;33.96
5905;BME280;2978;42.012;24.880;2023-02-19T08:02:17;99050.06;;;18.17;34.30
5905;BME280;2978;42.012;24.880;2023-02-19T08:05:01;99045.41;;;18.35;33.77
5905;BME280;2978;42.012;24.880;2023-02-19T08:07:33;99031.25;;;18.45;33.63
5905;BME280;2978;42.012;24.880;2023-02-19T08:09:59;99047.88;;;18.58;33.50
5905;BME280;2978;42.012;24.880;2023-02-19T08:12:45;99042.22;;;18.72;33.33
5905;BME280;2978;42.012;24.880;2023-02-19T08:15:37;99035.34;;;18.78;33.21
5905;BME280;2978;42.012;24.880;2023-02-19T08:18:02;99037.13;;;18.65;33.42
5905;BME280;2978;42.012;24.880;2023-02-19T08:20:28;99032.84;;;18.68;33.40
5905;BME280;2978;42.012;24.880;2023-02-19T08:22:53;99032.47;;;18.61;33.24
5905;BME280;2978;42.012;24.880;2023-02-19T08:25:18;99024.28;;;18.56;33.34
5905;BME280;2978;42.012;24.880;2023-02-19T08:27:44;99023.44;;;18.55;33.09
5905;BME280;2978;42.012;24.880;2023-02-19T08:30:10;99024.47;;;18.59;33.20
5905;BME280;2978;42.012;24.880;2023-02-19T08:32:35;99029.84;;;18.56;33.08
5905;BME280;2978;42.012;24.880;2023-02-19T08:35:01;99025.72;;;18.53;32.87
5905;BME280;2978;42.012;24.880;2023-02-19T08:37:26;99022.28;;;18.48;33.28
5905;BME280;2978;42.012;24.880;2023-02-19T08:39:51;99019.50;;;18.48;33.22
5905;BME280;2978;42.012;24.880;2023-02-19T08:42:17;99025.06;;;18.48;33.35
5905;BME280;2978;42.012;24.880;2023-02-19T08:44:42;99016.06;;;18.51;33.90
5905;BME280;2978;42.012;24.880;2023-02-19T08:47:08;99011.31;;;18.51;33.73
5905;BME280;2978;42.012;24.880;2023-02-19T08:49:33;99010.84;;;18.58;33.46
5905;BME280;2978;42.012;24.880;2023-02-19T08:51:58;99020.22;;;18.62;33.21
5905;BME280;2978;42.012;24.880;2023-02-19T08:54:24;99027.28;;;18.68;33.60
5905;BME280;2978;42.012;24.880;2023-02-19T08:56:49;99028.78;;;18.74;33.53
5905;BME280;2978;42.012;24.880;2023-02-19T08:59:15;99021.41;;;18.78;33.43
5905;BME280;2978;42.012;24.880;2023-02-19T09:01:41;99017.69;;;18.82;33.18
5905;BME280;2978;42.012;24.880;2023-02-19T09:04:10;99021.25;;;18.83;33.17
5905;BME280;2978;42.012;24.880;2023-02-19T09:06:36;99023.94;;;18.88;32.95
5905;BME280;2978;42.012;24.880;2023-02-19T09:09:01;99009.28;;;18.74;32.60
5905;BME280;2978;42.012;24.880;2023-02-19T09:11:26;99020.25;;;18.70;32.79
5905;BME280;2978;42.012;24.880;2023-02-19T09:13:54;99010.06;;;18.66;33.09
5905;BME280;2978;42.012;24.880;2023-02-19T09:16:20;99011.53;;;18.63;33.32
5905;BME280;2978;42.012;24.880;2023-02-19T09:18:45;99001.19;;;18.64;33.38
5905;BME280;2978;42.012;24.880;2023-02-19T09:21:10;98998.16;;;18.74;33.44
5905;BME280;2978;42.012;24.880;2023-02-19T09:23:36;98999.75;;;18.66;33.20
5905;BME280;2978;42.012;24.880;2023-02-19T09:26:03;99003.03;;;18.68;33.28
5905;BME280;2978;42.012;24.880;2023-02-19T09:28:31;99005.34;;;18.75;32.88
5905;BME280;2978;42.012;24.880;2023-02-19T09:31:05;98998.97;;;18.83;33.01
5905;BME280;2978;42.012;24.880;2023-02-19T09:33:31;99014.59;;;18.92;32.83
5905;BME280;2978;42.012;24.880;2023-02-19T09:36:00;99008.03;;;18.97;33.11
5905;BME280;2978;42.012;24.880;2023-02-19T09:38:26;99006.34;;;18.79;33.46
5905;BME280;2978;42.012;24.880;2023-02-19T09:40:52;98998.50;;;18.81;33.67
5905;BME280;2978;42.012;24.880;2023-02-19T09:43:19;98992.09;;;18.80;33.43
5905;BME280;2978;42.012;24.880;2023-02-19T09:46:03;98983.06;;;18.75;33.52
5905;BME280;2978;42.012;24.880;2023-02-19T09:48:32;98990.13;;;18.81;33.71
5905;BME280;2978;42.012;24.880;2023-02-19T09:50:58;98990.25;;;18.76;33.70
5905;BME280;2978;42.012;24.880;2023-02-19T09:53:28;98981.31;;;18.87;33.75
5905;BME280;2978;42.012;24.880;2023-02-19T09:55:56;98978.03;;;18.94;33.59
5905;BME280;2978;42.012;24.880;2023-02-19T09:58:32;98968.22;;;19.05;32.88
5905;BME280;2978;42.012;24.880;2023-02-19T10:01:00;98966.28;;;19.14;32.87
5905;BME280;2978;42.012;24.880;2023-02-19T10:03:29;98955.13;;;19.23;32.80
5905;BME280;2978;42.012;24.880;2023-02-19T10:08:45;98954.50;;;19.34;33.04
5905;BME280;2978;42.012;24.880;2023-02-19T10:11:12;98954.00;;;19.32;33.08
5905;BME280;2978;42.012;24.880;2023-02-19T10:13:44;98942.22;;;19.35;33.12
5905;BME280;2978;42.012;24.880;2023-02-19T10:16:19;98952.06;;;19.41;33.02
5905;BME280;2978;42.012;24.880;2023-02-19T10:18:46;98938.09;;;19.50;33.11
5905;BME280;2978;42.012;24.880;2023-02-19T10:21:16;98926.13;;;19.49;32.41
5905;BME280;2978;42.012;24.880;2023-02-19T10:23:44;98934.97;;;19.51;32.76
5905;BME280;2978;42.012;24.880;2023-02-19T10:26:11;98932.34;;;19.55;32.79
5905;BME280;2978;42.012;24.880;2023-02-19T10:28:36;98920.53;;;19.49;32.53
5905;BME280;2978;42.012;24.880;2023-02-19T10:31:06;98916.94;;;19.57;32.41
5905;BME280;2978;42.012;24.880;2023-02-19T10:33:50;98915.75;;;19.67;32.57
5905;BME280;2978;42.012;24.880;2023-02-19T10:36:32;98904.13;;;19.65;32.35
5905;BME280;2978;42.012;24.880;2023-02-19T10:39:18;98896.88;;;19.72;32.44
5905;BME280;2978;42.012;24.880;2023-02-19T10:41:50;98896.53;;;19.82;32.75
5905;BME280;2978;42.012;24.880;2023-02-19T10:44:24;98887.13;;;20.04;31.58
5905;BME280;2978;42.012;24.880;2023-02-19T10:46:52;98890.38;;;20.14;31.17
5905;BME280;2978;42.012;24.880;2023-02-19T10:49:31;98881.44;;;20.30;31.46
5905;BME280;2978;42.012;24.880;2023-02-19T10:52:24;98875.38;;;20.36;30.58
5905;BME280;2978;42.012;24.880;2023-02-19T10:54:56;98872.19;;;20.46;30.85
5905;BME280;2978;42.012;24.880;2023-02-19T10:57:28;98855.03;;;20.56;30.92
5905;BME280;2978;42.012;24.880;2023-02-19T10:59:58;98861.31;;;20.74;30.71
5905;BME280;2978;42.012;24.880;2023-02-19T11:02:26;98858.69;;;20.98;30.81
5905;BME280;2978;42.012;24.880;2023-02-19T11:05:20;98851.28;;;21.22;30.32
5905;BME280;2978;42.012;24.880;2023-02-19T11:07:54;98838.72;;;21.29;30.36
5905;BME280;2978;42.012;24.880;2023-02-19T11:10:35;98845.47;;;21.27;30.11
5905;BME280;2978;42.012;24.880;2023-02-19T11:13:05;98844.78;;;21.31;30.38
5905;BME280;2978;42.012;24.880;2023-02-19T11:15:35;98838.59;;;21.25;30.38
5905;BME280;2978;42.012;24.880;2023-02-19T11:18:18;98840.22;;;21.26;30.11
5905;BME280;2978;42.012;24.880;2023-02-19T11:21:05;98825.75;;;21.24;30.60
5905;BME280;2978;42.012;24.880;2023-02-19T11:23:34;98820.84;;;21.21;30.67
5905;BME280;2978;42.012;24.880;2023-02-19T11:26:06;98826.75;;;21.07;30.71
5905;BME280;2978;42.012;24.880;2023-02-19T11:28:40;98838.72;;;21.08;30.58
5905;BME280;2978;42.012;24.880;2023-02-19T11:31:14;98826.78;;;21.19;30.42
5905;BME280;2978;42.012;24.880;2023-02-19T11:34:02;98824.78;;;21.20;30.81
5905;BME280;2978;42.012;24.880;2023-02-19T11:36:33;98817.72;;;21.22;30.69
5905;BME280;2978;42.012;24.880;2023-02-19T11:39:26;98805.28;;;21.32;30.43
5905;BME280;2978;42.012;24.880;2023-02-19T11:42:18;98810.47;;;21.54;30.60
5905;BME280;2978;42.012;24.880;2023-02-19T12:10:05;98764.88;;;22.22;28.20
5905;BME280;2978;42.012;24.880;2023-02-19T12:15:42;98754.22;;;22.04;28.49
5905;BME280;2978;42.012;24.880;2023-02-19T12:18:51;98761.00;;;22.15;28.47
5905;BME280;2978;42.012;24.880;2023-02-19T12:29:58;98750.84;;;22.22;28.73
5905;BME280;2978;42.012;24.880;2023-02-19T12:43:25;98723.66;;;21.87;29.59
5905;BME280;2978;42.012;24.880;2023-02-19T12:46:17;98702.22;;;21.79;29.41
5905;BME280;2978;42.012;24.880;2023-02-19T12:48:58;98715.59;;;21.73;29.49
5905;BME280;2978;42.012;24.880;2023-02-19T12:51:46;98701.84;;;21.68;29.24
5905;BME280;2978;42.012;24.880;2023-02-19T12:54:26;98706.03;;;21.74;29.50
5905;BME280;2978;42.012;24.880;2023-02-19T12:57:05;98700.56;;;21.78;29.07
5905;BME280;2978;42.012;24.880;2023-02-19T12:59:50;98704.88;;;21.63;29.56
5905;BME280;2978;42.012;24.880;2023-02-19T13:05:43;98685.63;;;21.62;29.78
5905;BME280;2978;42.012;24.880;2023-02-19T13:08:27;98685.75;;;21.65;29.96
5905;BME280;2978;42.012;24.880;2023-02-19T13:11:04;98684.09;;;21.64;29.37
5905;BME280;2978;42.012;24.880;2023-02-19T13:15:59;98682.25;;;21.56;29.49
5905;BME280;2978;42.012;24.880;2023-02-19T13:18:41;98667.06;;;21.57;29.98
5905;BME280;2978;42.012;24.880;2023-02-19T13:21:08;98663.81;;;21.55;30.01
5905;BME280;2978;42.012;24.880;2023-02-19T13:23:38;98668.50;;;21.51;29.71
5905;BME280;2978;42.012;24.880;2023-02-19T13:26:58;98664.63;;;21.56;29.69
5905;BME280;2978;42.012;24.880;2023-02-19T13:35:22;98647.38;;;21.54;29.71
5905;BME280;2978;42.012;24.880;2023-02-19T13:37:50;98660.78;;;21.60;29.86
5905;BME280;2978;42.012;24.880;2023-02-19T13:42:57;98645.50;;;21.34;30.11
5905;BME280;2978;42.012;24.880;2023-02-19T13:45:43;98628.72;;;21.34;30.12
5905;BME280;2978;42.012;24.880;2023-02-19T13:50:50;98625.09;;;21.21;30.27
5905;BME280;2978;42.012;24.880;2023-02-19T14:04:23;98610.16;;;21.53;29.73
5905;BME280;2978;42.012;24.880;2023-02-19T14:14:44;98594.91;;;21.51;29.70
5905;BME280;2978;42.012;24.880;2023-02-19T14:17:41;98592.34;;;21.46;29.84
5905;BME280;2978;42.012;24.880;2023-02-19T14:30:52;98586.19;;;21.28;30.04
5905;BME280;2978;42.012;24.880;2023-02-19T14:33:26;98583.63;;;21.23;30.45
5905;BME280;2978;42.012;24.880;2023-02-19T14:38:35;98575.69;;;21.13;30.67
5905;BME280;2978;42.012;24.880;2023-02-19T14:41:02;98568.69;;;21.07;30.73
5905;BME280;2978;42.012;24.880;2023-02-19T14:43:28;98570.63;;;20.94;31.33
5905;BME280;2978;42.012;24.880;2023-02-19T14:46:00;98561.63;;;20.89;31.13
5905;BME280;2978;42.012;24.880;2023-02-19T14:48:36;98560.72;;;20.85;31.19
5905;BME280;2978;42.012;24.880;2023-02-19T14:51:06;98558.81;;;20.77;31.33
5905;BME280;2978;42.012;24.880;2023-02-19T14:53:37;98560.38;;;20.86;31.16
5905;BME280;2978;42.012;24.880;2023-02-19T14:56:04;98548.25;;;20.82;31.42
5905;BME280;2978;42.012;24.880;2023-02-19T14:58:32;98539.75;;;20.79;31.31
5905;BME280;2978;42.012;24.880;2023-02-19T15:00:57;98539.50;;;20.72;31.21
5905;BME280;2978;42.012;24.880;2023-02-19T15:03:33;98537.38;;;20.57;31.26
5905;BME280;2978;42.012;24.880;2023-02-19T15:06:06;98532.25;;;20.47;31.75
5905;BME280;2978;42.012;24.880;2023-02-19T15:08:39;98531.63;;;20.41;31.58
5905;BME280;2978;42.012;24.880;2023-02-19T15:11:09;98527.91;;;20.37;31.62
5905;BME280;2978;42.012;24.880;2023-02-19T15:13:36;98529.59;;;20.30;31.79
5905;BME280;2978;42.012;24.880;2023-02-19T15:16:03;98530.44;;;20.30;31.75
5905;BME280;2978;42.012;24.880;2023-02-19T15:18:28;98526.56;;;20.23;32.06
5905;BME280;2978;42.012;24.880;2023-02-19T15:21:00;98522.69;;;20.15;32.27
5905;BME280;2978;42.012;24.880;2023-02-19T15:23:28;98525.22;;;20.08;32.57
5905;BME280;2978;42.012;24.880;2023-02-19T15:25:55;98528.47;;;19.89;32.95
5905;BME280;2978;42.012;24.880;2023-02-19T15:33:21;98532.03;;;19.57;33.44
5905;BME280;2978;42.012;24.880;2023-02-19T15:35:52;98525.91;;;19.43;33.64
5905;BME280;2978;42.012;24.880;2023-02-19T15:38:19;98519.16;;;19.15;34.25
5905;BME280;2978;42.012;24.880;2023-02-19T15:40:45;98522.28;;;19.14;34.38